Bastogne, Belgium
Current Conditions -  °F | °C
As of 7:20 AM on Wednesday 26 Nov 2014 (Local Time) from ELLX Reporting Station
Haze Haze  
Wind Chill: 37°   Ceiling: 600
Heat Index: 41°   Visibility: 1.6mi
Dew Point: 39°   Wind: 6mph
Humidity: 93%   Direction: 70°ENE
Pressure: 29.94"   Gusts: NA
Location:  50°N, 5.72°E
Report Text: ELLX 260620Z 07005KT 040V110 2600 BR BKN006 05/04 Q1014 NOSIG
Loading
Personal Weather Stations






























Interactive Weather Map New forecast layout! Learn more

10-Day Weather Forecast

Advertisements
Track Severe Weather on mobile